BJX weather

Del Bajío International Airport
Silao, Guanajuato, Mexico

Public forecast

Using degrees Celsius for public forecast. Weather courtesy of forecast.io.

Current aviation weather report (METAR) for Del Bajío International Airport

Retrieved 2019/10/19 12:43 UTC (59 minutes ago):

MMLO 191243Z 00000KT 9SM SCT030 BKN080 BKN220 16/15 A3018 RMK 8/538

Aviation forecast (TAF) for Del Bajío International Airport

Forecast is more than 6 hours old.

Retrieved 2019/10/19 06:00 UTC (8 hours ago):

TAF MMLO 190454Z 1906/2006 00000KT P6SM SCT030 BKN080 FM190800 00000KT P6SM -RA BKN030 OVC080 FM191000 00000KT 3SM BR BKN020 BKN070 TEMPO 1911/1915 2SM BR FM191600 22008KT P6SM SCT030 BKN220 TEMPO 1922/2002 4SM TSRA BKN030CB